DLH3YF EDDB-EDDF
Flight info
| Callsign | DLH3YF |
|---|---|
| Flight time | 0h 41m |
| Altitude | 22000 |
| Route | SUKIP3N SUKIP DCT MAXAN DCT ORTAG T177 ODIPI/N0413F210 T157 KERAX KERAX5A |
| Aircraft | A321/M-SDE3FGHIRWY/LB1 |
Departure
| Time | 2026-04-17 13:07 |
|---|---|
| Airport | Berlin Brandenburg Airport (EDDB) |
Arrival
| Time | 2026-04-17 13:48 |
|---|---|
| Airport | Frankfurt Main Airport (EDDF) |
| Time | Latitude | Longitude | Altitude | Speed | Heading |
|---|---|---|---|---|---|
| 2026-04-17 12:30 | 52.36386 | 13.50588 | 157 ft | 0 kts | 69° |
| 2026-04-17 12:47 | 52.36386 | 13.50587 | 155 ft | 0 kts | 69° |
| 2026-04-17 12:52 | 52.36384 | 13.50580 | 155 ft | 4 kts | 70° |
| 2026-04-17 12:52 | 52.36376 | 13.50538 | 155 ft | 4 kts | 78° |
| 2026-04-17 12:52 | 52.36373 | 13.50495 | 155 ft | 4 kts | 91° |
| 2026-04-17 12:53 | 52.36377 | 13.50454 | 155 ft | 4 kts | 123° |
| 2026-04-17 12:53 | 52.36388 | 13.50435 | 155 ft | 0 kts | 159° |
| 2026-04-17 12:57 | 52.36387 | 13.50436 | 154 ft | 1 kts | 159° |
| 2026-04-17 12:57 | 52.36349 | 13.50460 | 154 ft | 11 kts | 158° |
| 2026-04-17 12:57 | 52.36248 | 13.50525 | 154 ft | 19 kts | 159° |
| 2026-04-17 12:57 | 52.36119 | 13.50606 | 154 ft | 20 kts | 159° |
| 2026-04-17 12:58 | 52.35986 | 13.50689 | 154 ft | 21 kts | 159° |
| 2026-04-17 12:58 | 52.35855 | 13.50771 | 154 ft | 18 kts | 168° |
| 2026-04-17 12:58 | 52.35771 | 13.50615 | 154 ft | 24 kts | 251° |
| 2026-04-17 12:58 | 52.35708 | 13.50353 | 154 ft | 25 kts | 248° |
| 2026-04-17 12:59 | 52.35645 | 13.50090 | 154 ft | 25 kts | 249° |
| 2026-04-17 12:59 | 52.35583 | 13.49824 | 154 ft | 25 kts | 249° |
| 2026-04-17 12:59 | 52.35520 | 13.49558 | 154 ft | 25 kts | 249° |
| 2026-04-17 12:59 | 52.35457 | 13.49291 | 154 ft | 25 kts | 249° |
| 2026-04-17 13:00 | 52.35393 | 13.49024 | 154 ft | 25 kts | 249° |
| 2026-04-17 13:00 | 52.35330 | 13.48754 | 154 ft | 26 kts | 249° |
| 2026-04-17 13:00 | 52.35263 | 13.48500 | 154 ft | 21 kts | 224° |
| 2026-04-17 13:00 | 52.35147 | 13.48525 | 154 ft | 18 kts | 158° |
| 2026-04-17 13:01 | 52.35099 | 13.48636 | 154 ft | 0 kts | 100° |
| 2026-04-17 13:05 | 52.35099 | 13.48638 | 154 ft | 1 kts | 100° |
| 2026-04-17 13:05 | 52.35093 | 13.48698 | 154 ft | 9 kts | 99° |
| 2026-04-17 13:06 | 52.35080 | 13.48833 | 154 ft | 16 kts | 97° |
| 2026-04-17 13:06 | 52.35082 | 13.49075 | 154 ft | 25 kts | 78° |
| 2026-04-17 13:06 | 52.35145 | 13.49377 | 154 ft | 36 kts | 67° |
| 2026-04-17 13:06 | 52.35323 | 13.50126 | 158 ft | 105 kts | 68° |
| 2026-04-17 13:07 | 52.35660 | 13.51540 | 155 ft | 159 kts | 69° |
| 2026-04-17 13:07 | 52.36088 | 13.53357 | 562 ft | 173 kts | 72° |
| 2026-04-17 13:07 | 52.35940 | 13.55321 | 1230 ft | 186 kts | 120° |
| 2026-04-17 13:07 | 52.34929 | 13.56680 | 1712 ft | 200 kts | 160° |
| 2026-04-17 13:08 | 52.33529 | 13.56560 | 2181 ft | 207 kts | 200° |
| 2026-04-17 13:08 | 52.32240 | 13.55465 | 2626 ft | 216 kts | 217° |
| 2026-04-17 13:08 | 52.31012 | 13.53917 | 2910 ft | 228 kts | 219° |
| 2026-04-17 13:08 | 52.29755 | 13.52289 | 3262 ft | 236 kts | 219° |
| 2026-04-17 13:09 | 52.28402 | 13.50529 | 3394 ft | 261 kts | 220° |
| 2026-04-17 13:09 | 52.27071 | 13.48449 | 3922 ft | 268 kts | 238° |
| 2026-04-17 13:09 | 52.26362 | 13.45672 | 4683 ft | 266 kts | 262° |
| 2026-04-17 13:09 | 52.26295 | 13.42660 | 5454 ft | 265 kts | 272° |
| 2026-04-17 13:10 | 52.26303 | 13.39642 | 6195 ft | 268 kts | 271° |
| 2026-04-17 13:10 | 52.26307 | 13.36591 | 6938 ft | 269 kts | 272° |
| 2026-04-17 13:10 | 52.26307 | 13.33516 | 7629 ft | 271 kts | 272° |
| 2026-04-17 13:10 | 52.26260 | 13.30427 | 8325 ft | 275 kts | 263° |
| 2026-04-17 13:11 | 52.25617 | 13.27467 | 8973 ft | 282 kts | 239° |
| 2026-04-17 13:11 | 52.24473 | 13.24839 | 9668 ft | 285 kts | 236° |
| 2026-04-17 13:11 | 52.23293 | 13.22222 | 10333 ft | 288 kts | 236° |
| 2026-04-17 13:11 | 52.22068 | 13.19521 | 10585 ft | 307 kts | 235° |
| 2026-04-17 13:12 | 52.20758 | 13.16627 | 10706 ft | 327 kts | 235° |
| 2026-04-17 13:12 | 52.17901 | 13.10305 | 10942 ft | 364 kts | 235° |
| 2026-04-17 13:12 | 52.16385 | 13.06954 | 11065 ft | 380 kts | 235° |
| 2026-04-17 13:13 | 52.14791 | 13.03430 | 11244 ft | 393 kts | 235° |
| 2026-04-17 13:13 | 52.13155 | 12.99822 | 11661 ft | 398 kts | 235° |
| 2026-04-17 13:13 | 52.11503 | 12.96185 | 12133 ft | 401 kts | 235° |
| 2026-04-17 13:13 | 52.09835 | 12.92519 | 12614 ft | 405 kts | 235° |
| 2026-04-17 13:14 | 52.08153 | 12.88831 | 13087 ft | 408 kts | 235° |
| 2026-04-17 13:14 | 52.06459 | 12.85118 | 13560 ft | 411 kts | 235° |
| 2026-04-17 13:14 | 52.04753 | 12.81379 | 14017 ft | 414 kts | 235° |
| 2026-04-17 13:14 | 52.03030 | 12.77603 | 14422 ft | 417 kts | 235° |
| 2026-04-17 13:15 | 52.01301 | 12.73823 | 14849 ft | 419 kts | 235° |
| 2026-04-17 13:15 | 51.99555 | 12.70018 | 15274 ft | 421 kts | 235° |
| 2026-04-17 13:15 | 51.97797 | 12.66191 | 15697 ft | 423 kts | 235° |
| 2026-04-17 13:15 | 51.96033 | 12.62358 | 16127 ft | 425 kts | 235° |
| 2026-04-17 13:16 | 51.94259 | 12.58511 | 16570 ft | 428 kts | 235° |
| 2026-04-17 13:16 | 51.93076 | 12.55948 | 16835 ft | 429 kts | 236° |
| 2026-04-17 13:16 | 51.91285 | 12.52069 | 17251 ft | 431 kts | 236° |
| 2026-04-17 13:16 | 51.89481 | 12.48167 | 17677 ft | 433 kts | 236° |
| 2026-04-17 13:17 | 51.87078 | 12.42984 | 18214 ft | 436 kts | 236° |
| 2026-04-17 13:17 | 51.85251 | 12.39046 | 18576 ft | 438 kts | 236° |
| 2026-04-17 13:17 | 51.84014 | 12.36379 | 18806 ft | 440 kts | 236° |
| 2026-04-17 13:17 | 51.82173 | 12.32408 | 19137 ft | 442 kts | 236° |
| 2026-04-17 13:18 | 51.80324 | 12.28423 | 19475 ft | 444 kts | 236° |
| 2026-04-17 13:18 | 51.78462 | 12.24424 | 19809 ft | 446 kts | 236° |
| 2026-04-17 13:18 | 51.76614 | 12.20473 | 20132 ft | 448 kts | 236° |
| 2026-04-17 13:18 | 51.74728 | 12.16454 | 20504 ft | 450 kts | 236° |
| 2026-04-17 13:19 | 51.72832 | 12.12419 | 20845 ft | 452 kts | 236° |
| 2026-04-17 13:19 | 51.70935 | 12.08377 | 21178 ft | 454 kts | 236° |
| 2026-04-17 13:19 | 51.69024 | 12.04313 | 21500 ft | 456 kts | 236° |
| 2026-04-17 13:19 | 51.67106 | 12.00239 | 21821 ft | 458 kts | 236° |
| 2026-04-17 13:20 | 51.65173 | 11.96142 | 22119 ft | 460 kts | 236° |
| 2026-04-17 13:20 | 51.63232 | 11.92033 | 22235 ft | 461 kts | 236° |
| 2026-04-17 13:20 | 51.61295 | 11.87941 | 22251 ft | 460 kts | 236° |
| 2026-04-17 13:20 | 51.59353 | 11.83843 | 22247 ft | 460 kts | 236° |
| 2026-04-17 13:21 | 51.57413 | 11.79754 | 22246 ft | 460 kts | 236° |
| 2026-04-17 13:21 | 51.55469 | 11.75661 | 22247 ft | 460 kts | 236° |
| 2026-04-17 13:21 | 51.53532 | 11.71583 | 22248 ft | 460 kts | 236° |
| 2026-04-17 13:21 | 51.51586 | 11.67493 | 22247 ft | 460 kts | 236° |
| 2026-04-17 13:22 | 51.49635 | 11.63413 | 22247 ft | 460 kts | 236° |
| 2026-04-17 13:22 | 51.47687 | 11.59344 | 22230 ft | 460 kts | 236° |
| 2026-04-17 13:22 | 51.45739 | 11.55279 | 22223 ft | 460 kts | 236° |
| 2026-04-17 13:22 | 51.43814 | 11.51274 | 22226 ft | 459 kts | 236° |
| 2026-04-17 13:23 | 51.41864 | 11.47224 | 22223 ft | 459 kts | 236° |
| 2026-04-17 13:23 | 51.39914 | 11.43178 | 22224 ft | 459 kts | 236° |
| 2026-04-17 13:23 | 51.37966 | 11.39139 | 22222 ft | 459 kts | 236° |
| 2026-04-17 13:23 | 51.36015 | 11.35097 | 22220 ft | 458 kts | 236° |
| 2026-04-17 13:24 | 51.34066 | 11.31066 | 22215 ft | 458 kts | 236° |
| 2026-04-17 13:24 | 51.32111 | 11.27032 | 22215 ft | 458 kts | 235° |
| 2026-04-17 13:24 | 51.30159 | 11.23010 | 22214 ft | 459 kts | 235° |
| 2026-04-17 13:24 | 51.28202 | 11.18986 | 22216 ft | 459 kts | 235° |
| 2026-04-17 13:25 | 51.26240 | 11.14965 | 22204 ft | 458 kts | 235° |
| 2026-04-17 13:25 | 51.24282 | 11.10953 | 22208 ft | 458 kts | 235° |
| 2026-04-17 13:25 | 51.22325 | 11.06945 | 22209 ft | 459 kts | 235° |
| 2026-04-17 13:25 | 51.20362 | 11.02926 | 22211 ft | 459 kts | 235° |
| 2026-04-17 13:26 | 51.18398 | 10.98915 | 22197 ft | 459 kts | 235° |
| 2026-04-17 13:26 | 51.16433 | 10.94909 | 22196 ft | 459 kts | 235° |
| 2026-04-17 13:26 | 51.14469 | 10.90910 | 22200 ft | 459 kts | 235° |
| 2026-04-17 13:26 | 51.12499 | 10.86908 | 22202 ft | 458 kts | 235° |
| 2026-04-17 13:27 | 51.10531 | 10.82914 | 22206 ft | 458 kts | 235° |
| 2026-04-17 13:27 | 51.08590 | 10.78980 | 22207 ft | 458 kts | 235° |
| 2026-04-17 13:27 | 51.06620 | 10.74997 | 22196 ft | 458 kts | 235° |
| 2026-04-17 13:27 | 51.04648 | 10.71017 | 22199 ft | 458 kts | 235° |
| 2026-04-17 13:28 | 51.02672 | 10.67036 | 22198 ft | 458 kts | 234° |
| 2026-04-17 13:28 | 51.00695 | 10.63059 | 22200 ft | 458 kts | 234° |
| 2026-04-17 13:28 | 50.98721 | 10.59095 | 22199 ft | 459 kts | 234° |
| 2026-04-17 13:28 | 50.96742 | 10.55120 | 22201 ft | 459 kts | 234° |
| 2026-04-17 13:29 | 50.94765 | 10.51153 | 22202 ft | 458 kts | 234° |
| 2026-04-17 13:29 | 50.92785 | 10.47188 | 22202 ft | 459 kts | 234° |
| 2026-04-17 13:29 | 50.90804 | 10.43235 | 22201 ft | 459 kts | 234° |
| 2026-04-17 13:29 | 50.88818 | 10.39278 | 22191 ft | 458 kts | 234° |
| 2026-04-17 13:30 | 50.86834 | 10.35330 | 22185 ft | 458 kts | 234° |
| 2026-04-17 13:30 | 50.84851 | 10.31387 | 22189 ft | 458 kts | 234° |
| 2026-04-17 13:30 | 50.82869 | 10.27453 | 22192 ft | 457 kts | 234° |
| 2026-04-17 13:30 | 50.80889 | 10.23524 | 22162 ft | 457 kts | 234° |
| 2026-04-17 13:31 | 50.78919 | 10.19621 | 21572 ft | 450 kts | 234° |
| 2026-04-17 13:31 | 50.76971 | 10.15772 | 20758 ft | 446 kts | 234° |
| 2026-04-17 13:31 | 50.75043 | 10.11965 | 19959 ft | 441 kts | 234° |
| 2026-04-17 13:31 | 50.73163 | 10.08258 | 19175 ft | 437 kts | 234° |
| 2026-04-17 13:32 | 50.71269 | 10.04530 | 18407 ft | 433 kts | 233° |
| 2026-04-17 13:32 | 50.69392 | 10.00842 | 17558 ft | 429 kts | 233° |
| 2026-04-17 13:32 | 50.67614 | 9.97124 | 16749 ft | 421 kts | 240° |
| 2026-04-17 13:32 | 50.66283 | 9.93060 | 15954 ft | 415 kts | 245° |
| 2026-04-17 13:33 | 50.65018 | 9.88989 | 15178 ft | 411 kts | 245° |
| 2026-04-17 13:33 | 50.63770 | 9.84968 | 14436 ft | 407 kts | 245° |
| 2026-04-17 13:33 | 50.62534 | 9.80981 | 13681 ft | 403 kts | 245° |
| 2026-04-17 13:33 | 50.61340 | 9.77132 | 12930 ft | 398 kts | 245° |
| 2026-04-17 13:34 | 50.60099 | 9.73144 | 12146 ft | 394 kts | 244° |
| 2026-04-17 13:34 | 50.58902 | 9.69296 | 11486 ft | 389 kts | 244° |
| 2026-04-17 13:34 | 50.57711 | 9.65473 | 11248 ft | 389 kts | 244° |
| 2026-04-17 13:34 | 50.56518 | 9.61650 | 11189 ft | 390 kts | 244° |
| 2026-04-17 13:35 | 50.55321 | 9.57822 | 11204 ft | 390 kts | 244° |
| 2026-04-17 13:35 | 50.54123 | 9.54006 | 11198 ft | 389 kts | 244° |
| 2026-04-17 13:35 | 50.52922 | 9.50187 | 11204 ft | 390 kts | 244° |
| 2026-04-17 13:35 | 50.51719 | 9.46367 | 11204 ft | 391 kts | 244° |
| 2026-04-17 13:36 | 50.50513 | 9.42538 | 11206 ft | 390 kts | 244° |
| 2026-04-17 13:36 | 50.49142 | 9.38870 | 11192 ft | 391 kts | 232° |
| 2026-04-17 13:36 | 50.47147 | 9.36075 | 11198 ft | 393 kts | 212° |
| 2026-04-17 13:36 | 50.44706 | 9.34198 | 11202 ft | 394 kts | 204° |
| 2026-04-17 13:37 | 50.42150 | 9.32467 | 11198 ft | 393 kts | 204° |
| 2026-04-17 13:37 | 50.39663 | 9.30797 | 11201 ft | 394 kts | 204° |
| 2026-04-17 13:37 | 50.37154 | 9.29107 | 11200 ft | 394 kts | 204° |
| 2026-04-17 13:37 | 50.34637 | 9.27411 | 11202 ft | 394 kts | 204° |
| 2026-04-17 13:38 | 50.32055 | 9.26057 | 11196 ft | 384 kts | 191° |
| 2026-04-17 13:38 | 50.29477 | 9.26065 | 11206 ft | 362 kts | 170° |
| 2026-04-17 13:38 | 50.27108 | 9.27043 | 11119 ft | 343 kts | 164° |
| 2026-04-17 13:38 | 50.24883 | 9.28080 | 10990 ft | 326 kts | 164° |
| 2026-04-17 13:39 | 50.22774 | 9.29081 | 10801 ft | 305 kts | 166° |
| 2026-04-17 13:39 | 50.20726 | 9.29435 | 10196 ft | 291 kts | 187° |
| 2026-04-17 13:39 | 50.18844 | 9.28467 | 9426 ft | 284 kts | 213° |
| 2026-04-17 13:39 | 50.17468 | 9.26326 | 8649 ft | 280 kts | 240° |
| 2026-04-17 13:40 | 50.16873 | 9.23483 | 7862 ft | 279 kts | 264° |
| 2026-04-17 13:40 | 50.16987 | 9.20447 | 7426 ft | 281 kts | 278° |
| 2026-04-17 13:40 | 50.17300 | 9.17472 | 6791 ft | 277 kts | 278° |
| 2026-04-17 13:40 | 50.17641 | 9.14538 | 6320 ft | 274 kts | 278° |
| 2026-04-17 13:41 | 50.17956 | 9.11593 | 6190 ft | 276 kts | 279° |
| 2026-04-17 13:41 | 50.18085 | 9.08626 | 6196 ft | 274 kts | 257° |
| 2026-04-17 13:41 | 50.17289 | 9.05978 | 6199 ft | 273 kts | 233° |
| 2026-04-17 13:41 | 50.16281 | 9.03462 | 6192 ft | 272 kts | 248° |
| 2026-04-17 13:42 | 50.15694 | 9.00685 | 6197 ft | 268 kts | 252° |
| 2026-04-17 13:42 | 50.15113 | 8.97922 | 6159 ft | 268 kts | 250° |
| 2026-04-17 13:42 | 50.14492 | 8.95252 | 5888 ft | 263 kts | 249° |
| 2026-04-17 13:42 | 50.13854 | 8.92555 | 5547 ft | 261 kts | 249° |
| 2026-04-17 13:43 | 50.13241 | 8.89950 | 5205 ft | 256 kts | 249° |
| 2026-04-17 13:43 | 50.12649 | 8.87425 | 4876 ft | 241 kts | 249° |
| 2026-04-17 13:43 | 50.12089 | 8.85046 | 4574 ft | 229 kts | 249° |
| 2026-04-17 13:43 | 50.11549 | 8.82750 | 4259 ft | 224 kts | 249° |
| 2026-04-17 13:44 | 50.11018 | 8.80498 | 3955 ft | 217 kts | 249° |
| 2026-04-17 13:44 | 50.10513 | 8.78358 | 3669 ft | 206 kts | 249° |
| 2026-04-17 13:44 | 50.10022 | 8.76280 | 3422 ft | 201 kts | 249° |
| 2026-04-17 13:44 | 50.09558 | 8.74313 | 3159 ft | 186 kts | 249° |
| 2026-04-17 13:45 | 50.09123 | 8.72476 | 2929 ft | 179 kts | 249° |
| 2026-04-17 13:45 | 50.08698 | 8.70683 | 2680 ft | 174 kts | 249° |
| 2026-04-17 13:45 | 50.08292 | 8.68971 | 2451 ft | 164 kts | 249° |
| 2026-04-17 13:45 | 50.07903 | 8.67329 | 2230 ft | 161 kts | 249° |
| 2026-04-17 13:46 | 50.07516 | 8.65700 | 2030 ft | 160 kts | 249° |
| 2026-04-17 13:46 | 50.07131 | 8.64077 | 1811 ft | 160 kts | 249° |
| 2026-04-17 13:46 | 50.06747 | 8.62462 | 1607 ft | 158 kts | 249° |
| 2026-04-17 13:46 | 50.06365 | 8.60858 | 1392 ft | 159 kts | 249° |
| 2026-04-17 13:47 | 50.05982 | 8.59248 | 1166 ft | 158 kts | 249° |
| 2026-04-17 13:47 | 50.05600 | 8.57636 | 946 ft | 159 kts | 250° |
| 2026-04-17 13:47 | 50.05213 | 8.56013 | 730 ft | 161 kts | 250° |
| 2026-04-17 13:47 | 50.04825 | 8.54378 | 531 ft | 161 kts | 250° |
| 2026-04-17 13:48 | 50.04429 | 8.52746 | 361 ft | 160 kts | 250° |
| 2026-04-17 13:48 | 50.04097 | 8.51340 | 351 ft | 102 kts | 249° |
| 2026-04-17 13:48 | 50.03949 | 8.50725 | 349 ft | 37 kts | 249° |
| 2026-04-17 13:48 | 50.03808 | 8.50343 | 356 ft | 37 kts | 219° |
| 2026-04-17 13:49 | 50.03663 | 8.50192 | 345 ft | 17 kts | 178° |
| 2026-04-17 13:49 | 50.03638 | 8.50319 | 351 ft | 14 kts | 71° |
| 2026-04-17 13:49 | 50.03673 | 8.50470 | 348 ft | 15 kts | 69° |
| 2026-04-17 13:49 | 50.03716 | 8.50649 | 353 ft | 21 kts | 70° |
| 2026-04-17 13:50 | 50.03767 | 8.50872 | 353 ft | 22 kts | 70° |
| 2026-04-17 13:50 | 50.03822 | 8.51096 | 351 ft | 22 kts | 69° |
| 2026-04-17 13:50 | 50.03882 | 8.51343 | 355 ft | 30 kts | 69° |
| 2026-04-17 13:50 | 50.03961 | 8.51684 | 349 ft | 34 kts | 70° |
| 2026-04-17 13:51 | 50.04042 | 8.52019 | 352 ft | 33 kts | 69° |
| 2026-04-17 13:51 | 50.04122 | 8.52345 | 348 ft | 32 kts | 69° |
| 2026-04-17 13:51 | 50.04198 | 8.52673 | 352 ft | 32 kts | 70° |
| 2026-04-17 13:51 | 50.04277 | 8.52996 | 349 ft | 32 kts | 69° |
| 2026-04-17 13:52 | 50.04355 | 8.53319 | 345 ft | 32 kts | 69° |
| 2026-04-17 13:52 | 50.04406 | 8.53649 | 345 ft | 31 kts | 85° |
| 2026-04-17 13:52 | 50.04428 | 8.53987 | 355 ft | 31 kts | 85° |
| 2026-04-17 13:52 | 50.04449 | 8.54323 | 351 ft | 31 kts | 84° |
| 2026-04-17 13:53 | 50.04407 | 8.54645 | 353 ft | 31 kts | 126° |
| 2026-04-17 13:53 | 50.04232 | 8.54821 | 347 ft | 30 kts | 159° |
| 2026-04-17 13:53 | 50.04074 | 8.54908 | 351 ft | 17 kts | 160° |
| 2026-04-17 13:53 | 50.03964 | 8.54974 | 350 ft | 7 kts | 158° |
| 2026-04-17 13:54 | 50.03896 | 8.55015 | 351 ft | 16 kts | 159° |
| 2026-04-17 13:54 | 50.03858 | 8.55154 | 353 ft | 17 kts | 70° |
| 2026-04-17 13:55 | 50.03961 | 8.55582 | 351 ft | 25 kts | 69° |
| 2026-04-17 13:55 | 50.04025 | 8.55851 | 355 ft | 28 kts | 70° |
| 2026-04-17 13:55 | 50.04171 | 8.56461 | 350 ft | 31 kts | 69° |
| 2026-04-17 13:56 | 50.04319 | 8.57087 | 354 ft | 31 kts | 70° |
| 2026-04-17 13:56 | 50.04393 | 8.57396 | 353 ft | 30 kts | 69° |
| 2026-04-17 13:56 | 50.04469 | 8.57706 | 352 ft | 31 kts | 69° |
| 2026-04-17 13:57 | 50.04521 | 8.57928 | 351 ft | 2 kts | 69° |
| 2026-04-17 13:57 | 50.04537 | 8.57994 | 352 ft | 17 kts | 69° |
| 2026-04-17 13:57 | 50.04620 | 8.58346 | 352 ft | 3 kts | 68° |
| 2026-04-17 13:58 | 50.04652 | 8.58475 | 349 ft | 25 kts | 70° |
| 2026-04-17 13:58 | 50.04774 | 8.58960 | 355 ft | 13 kts | 68° |
| 2026-04-17 13:58 | 50.04814 | 8.59009 | 347 ft | 9 kts | 353° |
| 2026-04-17 13:59 | 50.04866 | 8.58979 | 351 ft | 0 kts | 339° |